Time;durP1;ratioP1;P1;durP2;ratioP2;P2;SDS_P1;SDS_P2;PMS_P1;PMS_P2;Temp;Humidity;BMP_temperature;BMP_pressure;BME280_temperature;BME280_humidity;BME280_pressure;Samples;Min_cycle;Max_cycle;Signal;HPM_P1;HPM_P2
2022/10/26 00:02:20;;;;;;;15.07;8.70;;;;;;;;;;5039935;28;20087;-73
2022/10/26 00:04:46;;;;;;;18.75;10.02;;;;;;;;;;5034846;28;20025;-73
2022/10/26 00:07:12;;;;;;;23.27;9.18;;;;;;;;;;5036839;28;20036;-73
2022/10/26 00:09:38;;;;;;;15.93;8.75;;;;;;;;;;5031657;28;20025;-74
2022/10/26 00:12:04;;;;;;;13.77;8.38;;;;;;;;;;5026043;28;20036;-76
2022/10/26 00:14:30;;;;;;;18.23;8.55;;;;;;;;;;5036000;28;20030;-74
2022/10/26 00:16:57;;;;;;;13.63;9.25;;;;;;;;;;5026449;28;20152;-72
2022/10/26 00:19:23;;;;;;;19.42;8.88;;;;;;;;;;5013768;28;20095;-72
2022/10/26 00:21:49;;;;;;;18.00;9.35;;;;;;;;;;5030295;28;20512;-72
2022/10/26 00:24:15;;;;;;;19.02;9.20;;;;;;;;;;5031388;28;20374;-72
2022/10/26 00:26:42;;;;;;;13.00;8.25;;;;;;;;;;5024071;28;20045;-72
2022/10/26 00:29:09;;;;;;;20.58;9.80;;;;;;;;;;5030819;28;20394;-71
2022/10/26 00:31:35;;;;;;;13.93;8.15;;;;;;;;;;5031728;28;20371;-71
2022/10/26 00:34:01;;;;;;;18.83;8.93;;;;;;;;;;5039318;28;20401;-72
2022/10/26 00:36:28;;;;;;;16.08;9.43;;;;;;;;;;5050407;28;20036;-72
2022/10/26 00:38:54;;;;;;;14.35;8.68;;;;;;;;;;5026401;28;20415;-71
2022/10/26 00:41:26;;;;;;;25.10;9.02;;;;;;;;;;5027496;28;20080;-71
2022/10/26 00:43:52;;;;;;;13.63;8.82;;;;;;;;;;5032670;28;20048;-72
2022/10/26 00:46:24;;;;;;;13.02;8.68;;;;;;;;;;5021844;28;20056;-71
2022/10/26 00:48:51;;;;;;;17.17;8.70;;;;;;;;;;5008613;28;20316;-70
2022/10/26 00:51:31;;;;;;;19.45;8.88;;;;;;;;;;5028654;28;20061;-73
2022/10/26 00:53:59;;;;;;;14.70;9.10;;;;;;;;;;5027246;28;20481;-74
2022/10/26 00:56:25;;;;;;;25.38;9.35;;;;;;;;;;5029272;28;20462;-71
2022/10/26 00:58:51;;;;;;;16.05;8.43;;;;;;;;;;5031263;28;20041;-71
2022/10/26 01:01:17;;;;;;;15.30;9.38;;;;;;;;;;5026861;28;20381;-71
2022/10/26 01:03:44;;;;;;;15.07;9.30;;;;;;;;;;5045947;28;20035;-71
2022/10/26 01:06:11;;;;;;;17.20;10.07;;;;;;;;;;5031933;28;20045;-71
2022/10/26 01:08:38;;;;;;;20.92;9.10;;;;;;;;;;5024926;28;20410;-71
2022/10/26 01:11:04;;;;;;;16.60;9.38;;;;;;;;;;5029632;28;20034;-71
2022/10/26 01:13:32;;;;;;;14.75;8.98;;;;;;;;;;5018943;28;20022;-70
2022/10/26 01:15:58;;;;;;;16.58;8.80;;;;;;;;;;5012147;28;20099;-70
2022/10/26 01:18:33;;;;;;;17.52;9.25;;;;;;;;;;5022375;28;20029;-70
2022/10/26 01:21:19;;;;;;;16.13;8.90;;;;;;;;;;5037249;28;20060;-70
2022/10/26 01:23:45;;;;;;;12.30;7.63;;;;;;;;;;5030110;28;20030;-71
2022/10/26 01:26:14;;;;;;;15.30;9.75;;;;;;;;;;5025874;28;20029;-74
2022/10/26 01:28:40;;;;;;;14.27;9.35;;;;;;;;;;5027440;28;20178;-71
2022/10/26 01:31:10;;;;;;;14.38;9.15;;;;;;;;;;5025585;28;20556;-70
2022/10/26 01:33:45;;;;;;;14.43;8.50;;;;;;;;;;5029348;28;20117;-70
2022/10/26 01:36:27;;;;;;;16.50;9.07;;;;;;;;;;5022064;28;20079;-71
2022/10/26 01:38:53;;;;;;;22.00;9.50;;;;;;;;;;5022743;28;20063;-71
2022/10/26 01:41:34;;;;;;;21.42;9.52;;;;;;;;;;5028728;28;20038;-71
2022/10/26 01:44:04;;;;;;;15.93;8.35;;;;;;;;;;5035729;28;20021;-72
2022/10/26 01:46:32;;;;;;;15.70;8.48;;;;;;;;;;5030581;28;20478;-71
2022/10/26 01:49:01;;;;;;;15.85;9.55;;;;;;;;;;5035228;28;20478;-70
2022/10/26 01:51:28;;;;;;;13.82;8.80;;;;;;;;;;5028860;28;20092;-70
2022/10/26 01:53:54;;;;;;;16.27;8.98;;;;;;;;;;5021157;28;20474;-70
2022/10/26 01:56:25;;;;;;;16.00;10.32;;;;;;;;;;5028460;28;20034;-70
2022/10/26 01:59:03;;;;;;;20.45;9.07;;;;;;;;;;5023700;28;20447;-71
2022/10/26 02:01:33;;;;;;;12.88;8.23;;;;;;;;;;5029769;28;20498;-70
2022/10/26 02:04:06;;;;;;;15.68;7.78;;;;;;;;;;5033385;28;20745;-71
2022/10/26 02:06:40;;;;;;;17.67;8.82;;;;;;;;;;5049164;28;20063;-73
2022/10/26 02:09:06;;;;;;;12.07;7.63;;;;;;;;;;5027817;28;20092;-70
2022/10/26 02:11:36;;;;;;;13.80;8.32;;;;;;;;;;5029308;28;20025;-70
2022/10/26 02:14:47;;;;;;;15.32;9.15;;;10.10;99.90;;;;;;5024002;28;20171;-74
2022/10/26 02:17:29;;;;;;;18.95;8.77;;;;;;;;;;4993082;28;20055;-72
2022/10/26 02:20:02;;;;;;;17.15;9.32;;;;;;;;;;5002362;28;20046;-70
2022/10/26 02:22:31;;;;;;;16.55;10.02;;;;;;;;;;5010462;28;20382;-70
2022/10/26 02:24:59;;;;;;;13.05;8.60;;;;;;;;;;5011206;28;20037;-69
2022/10/26 02:27:28;;;;;;;17.00;9.48;;;;;;;;;;5018908;28;20134;-69
2022/10/26 02:29:55;;;;;;;16.15;9.35;;;;;;;;;;5010744;28;20030;-71
2022/10/26 02:32:23;;;;;;;22.55;10.05;;;;;;;;;;5015976;28;20036;-69
2022/10/26 02:34:50;;;;;;;15.43;10.02;;;;;;;;;;5015461;28;20034;-73
2022/10/26 02:37:18;;;;;;;17.20;10.25;;;;;;;;;;5012661;28;20366;-73
2022/10/26 02:39:46;;;;;;;19.42;10.80;;;;;;;;;;5008938;28;20180;-71
2022/10/26 02:42:13;;;;;;;18.88;10.48;;;;;;;;;;5020627;28;20033;-70
2022/10/26 02:44:46;;;;;;;20.58;11.35;;;;;;;;;;5027859;28;20358;-70
2022/10/26 02:47:12;;;;;;;14.93;11.57;;;;;;;;;;5013118;28;20112;-71
2022/10/26 02:49:38;;;;;;;25.13;12.57;;;;;;;;;;5007271;28;20038;-71
2022/10/26 02:52:07;;;;;;;22.08;13.32;;;;;;;;;;5008187;28;20042;-70
2022/10/26 02:54:33;;;;;;;21.90;12.40;;;;;;;;;;4999432;28;20089;-75
2022/10/26 02:57:02;;;;;;;27.25;14.85;;;;;;;;;;5008443;28;20026;-71
2022/10/26 02:59:30;;;;;;;19.00;12.57;;;;;;;;;;5005669;28;20029;-71
2022/10/26 03:01:57;;;;;;;22.98;14.07;;;;;;;;;;5016203;28;20041;-71
2022/10/26 03:04:33;;;;;;;25.65;15.18;;;;;;;;;;5011630;28;20048;-70
2022/10/26 03:06:59;;;;;;;18.85;13.98;;;;;;;;;;5002722;28;20027;-70
2022/10/26 03:09:25;;;;;;;23.15;14.20;;;;;;;;;;5014315;28;20034;-72
2022/10/26 03:11:51;;;;;;;23.73;15.60;;;;;;;;;;5021180;28;20066;-71
2022/10/26 03:14:17;;;;;;;27.00;15.40;;;;;;;;;;5021447;28;20036;-70
2022/10/26 03:16:43;;;;;;;21.05;14.35;;;;;;;;;;5028315;28;20393;-71
2022/10/26 03:19:10;;;;;;;27.38;14.60;;;;;;;;;;5030617;28;20071;-75
2022/10/26 03:21:36;;;;;;;22.45;15.15;;;;;;;;;;5026892;28;20120;-72
2022/10/26 03:24:02;;;;;;;26.48;15.18;;;;;;;;;;5014173;28;20500;-70
2022/10/26 03:26:28;;;;;;;19.00;14.25;;;;;;;;;;5034691;28;20030;-71
2022/10/26 03:28:54;;;;;;;23.77;15.43;;;;;;;;;;5034645;28;20041;-71
2022/10/26 03:31:20;;;;;;;22.83;15.55;;;;;;;;;;5034962;28;20083;-70
2022/10/26 03:33:46;;;;;;;20.95;14.80;;;;;;;;;;5033372;28;20041;-70
2022/10/26 03:36:12;;;;;;;23.80;15.70;;;;;;;;;;5038340;28;20079;-71
2022/10/26 03:38:38;;;;;;;27.27;16.40;;;;;;;;;;5022709;28;20552;-71
2022/10/26 03:41:04;;;;;;;29.73;15.27;;;;;;;;;;5025540;28;20041;-71
2022/10/26 03:43:30;;;;;;;25.75;15.13;;;;;;;;;;5032629;28;20025;-70
2022/10/26 03:45:56;;;;;;;26.75;15.52;;;;;;;;;;5008951;28;20034;-71
2022/10/26 03:48:22;;;;;;;23.20;14.43;;;;;;;;;;5026391;28;20043;-70
2022/10/26 03:50:48;;;;;;;25.25;15.40;;;;;;;;;;5008399;28;20037;-71
2022/10/26 03:53:14;;;;;;;25.23;14.57;;;;;;;;;;5038810;28;20037;-75
2022/10/26 03:55:43;;;;;;;22.65;14.32;;;;;;;;;;5027397;28;20066;-70
2022/10/26 03:58:09;;;;;;;28.77;14.73;;;;;;;;;;5030791;28;20473;-71
2022/10/26 04:00:35;;;;;;;24.10;13.52;;;;;;;;;;5032473;28;20132;-70
2022/10/26 04:03:01;;;;;;;22.27;14.85;;;;;;;;;;5028947;28;20108;-71
2022/10/26 04:05:28;;;;;;;22.98;14.02;;;;;;;;;;5031583;28;20470;-70
2022/10/26 04:07:54;;;;;;;29.17;14.93;;;;;;;;;;5032402;28;20429;-71
2022/10/26 04:10:20;;;;;;;20.13;14.25;;;;;;;;;;5025830;28;20438;-72
2022/10/26 04:12:46;;;;;;;25.42;14.57;;;;;;;;;;5026847;28;20025;-72
2022/10/26 04:15:12;;;;;;;26.55;14.88;;;;;;;;;;5029079;28;20359;-73
2022/10/26 04:17:38;;;;;;;23.58;14.52;;;;;;;;;;5030147;28;20048;-70
2022/10/26 04:20:04;;;;;;;21.33;14.15;;;;;;;;;;5021741;28;20037;-73
2022/10/26 04:22:30;;;;;;;25.80;14.90;;;;;;;;;;5037220;28;20535;-74
2022/10/26 04:24:56;;;;;;;27.52;15.43;;;;;;;;;;5029856;28;20033;-71
2022/10/26 04:27:22;;;;;;;27.38;15.90;;;;;;;;;;5023530;28;20237;-73
2022/10/26 04:29:49;;;;;;;26.30;14.48;;;;;;;;;;5023363;28;20497;-72
2022/10/26 04:32:15;;;;;;;20.58;14.75;;;;;;;;;;5028954;28;20478;-75
2022/10/26 04:34:41;;;;;;;24.55;15.43;;;;;;;;;;5023346;28;20030;-73
2022/10/26 04:37:07;;;;;;;34.97;20.00;;;;;;;;;;5023050;28;20038;-73
2022/10/26 04:39:33;;;;;;;26.55;17.17;;;;;;;;;;5023759;28;20030;-71
2022/10/26 04:41:59;;;;;;;32.80;18.02;;;;;;;;;;5035464;28;20091;-73
2022/10/26 04:44:25;;;;;;;29.63;15.45;;;;;;;;;;5024922;28;20636;-73
2022/10/26 04:46:51;;;;;;;22.25;14.75;;;;;;;;;;5030705;28;20041;-73
2022/10/26 04:49:17;;;;;;;22.65;13.85;;;;;;;;;;5024422;28;20042;-71
2022/10/26 04:51:43;;;;;;;23.85;14.57;;;;;;;;;;5031661;28;20072;-73
2022/10/26 04:54:09;;;;;;;25.83;15.25;;;;;;;;;;5027849;28;20079;-71
2022/10/26 04:56:35;;;;;;;22.50;14.25;;;;;;;;;;5020534;28;20205;-73
2022/10/26 04:59:01;;;;;;;29.60;15.00;;;;;;;;;;5027215;28;20042;-72
2022/10/26 05:01:27;;;;;;;24.67;14.50;;;;;;;;;;5032347;28;20474;-74
2022/10/26 05:03:53;;;;;;;18.60;13.57;;;;;;;;;;5014443;28;20036;-74
2022/10/26 05:06:20;;;;;;;23.83;14.38;;;;;;;;;;5026956;28;20025;-73
2022/10/26 05:08:46;;;;;;;26.73;14.00;;;;;;;;;;5031335;28;20556;-74
2022/10/26 05:11:12;;;;;;;22.33;14.88;;;;;;;;;;5025360;28;20726;-77
2022/10/26 05:13:39;;;;;;;23.77;13.60;;;;;;;;;;5025937;28;20025;-73
2022/10/26 05:16:05;;;;;;;21.83;13.73;;;;;;;;;;5044220;28;20064;-73
2022/10/26 05:18:31;;;;;;;27.20;17.33;;;;;;;;;;5029837;28;20021;-72
2022/10/26 05:20:57;;;;;;;38.75;21.90;;;;;;;;;;5011008;28;20433;-73
2022/10/26 05:23:24;;;;;;;25.80;16.15;;;;;;;;;;5027339;28;20021;-75
2022/10/26 05:25:50;;;;;;;23.13;15.43;;;;;;;;;;5028668;28;20422;-71
2022/10/26 05:28:17;;;;;;;22.13;14.32;;;;;;;;;;5031029;28;20108;-72
2022/10/26 05:30:44;;;;;;;24.13;13.68;;;;;;;;;;5027332;28;20401;-73
2022/10/26 05:33:11;;;;;;;24.20;13.23;;;;;;;;;;5029945;28;20412;-73
2022/10/26 05:35:37;;;;;;;23.23;14.32;;;;;;;;;;5029438;28;20030;-73
2022/10/26 05:38:07;;;;;;;20.20;13.35;;;;;;;;;;5030025;28;20088;-74
2022/10/26 05:40:33;;;;;;;21.02;14.60;;;;;;;;;;5025028;28;20061;-74
2022/10/26 05:43:00;;;;;;;22.42;14.00;;;;;;;;;;5027608;28;20064;-73
2022/10/26 05:45:26;;;;;;;20.45;13.35;;;;;;;;;;5029841;28;20450;-75
2022/10/26 05:47:52;;;;;;;27.50;15.43;;;;;;;;;;5026411;28;20124;-72
2022/10/26 05:50:18;;;;;;;24.88;15.27;;;;;;;;;;5019276;28;20116;-73
2022/10/26 05:52:45;;;;;;;24.80;15.40;;;;;;;;;;5028388;28;20033;-72
2022/10/26 05:55:15;;;;;;;21.27;14.25;;;;;;;;;;5025472;28;20040;-74
2022/10/26 05:57:42;;;;;;;25.73;15.27;;;;;;;;;;5028539;28;20087;-72
2022/10/26 06:00:09;;;;;;;22.00;13.10;;;;;;;;;;5027864;28;20025;-73
2022/10/26 06:02:54;;;;;;;19.08;13.27;;;;;;;;;;5025304;28;20025;-73
2022/10/26 06:05:23;;;;;;;21.10;13.55;;;;;;;;;;5050186;28;20033;-71
2022/10/26 06:07:49;;;;;;;22.13;13.52;;;;;;;;;;5030465;28;20108;-72
2022/10/26 06:10:16;;;;;;;25.40;13.73;;;;;;;;;;5029178;28;20462;-74
2022/10/26 06:12:42;;;;;;;22.23;14.30;;;;;;;;;;5027023;28;20091;-71
2022/10/26 06:15:12;;;;;;;27.40;14.63;;;;;;;;;;5027789;28;20053;-71
2022/10/26 06:17:41;;;;;;;22.77;13.82;;;;;;;;;;5018962;28;20101;-72
2022/10/26 06:20:07;;;;;;;19.30;11.90;;;;;;;;;;5011526;28;20029;-71
2022/10/26 06:22:36;;;;;;;24.42;13.57;;;;;;;;;;5027673;28;20437;-71
2022/10/26 06:25:15;;;;;;;23.50;13.88;;;;;;;;;;5040770;28;20149;-72
2022/10/26 06:27:45;;;;;;;32.88;18.42;;;;;;;;;;5029842;28;20033;-73
2022/10/26 06:30:12;;;;;;;22.65;13.40;;;;;;;;;;5021536;28;20085;-71
2022/10/26 06:32:39;;;;;;;24.30;13.10;;;;;;;;;;5029145;28;20040;-72
2022/10/26 06:35:11;;;;;;;20.98;13.15;;;;;;;;;;5023420;28;20472;-71
2022/10/26 06:37:38;;;;;;;21.20;12.60;;;;;;;;;;5031336;28;20029;-71
2022/10/26 06:40:04;;;;;;;23.35;13.38;;;;;;;;;;5025601;28;20331;-71
2022/10/26 06:42:31;;;;;;;18.42;12.23;;;;;;;;;;5029972;28;20030;-71
2022/10/26 06:44:58;;;;;;;25.15;12.10;;;;;;;;;;5027420;28;20048;-70
2022/10/26 06:47:32;;;;;;;20.35;12.10;;;;;;;;;;5029156;28;20025;-72
2022/10/26 06:50:17;;;;;;;23.13;12.50;;;;;;;;;;5024053;28;20355;-71
2022/10/26 06:53:03;;;;;;;16.58;12.43;;;;;;;;;;5029384;28;20486;-71
2022/10/26 06:55:35;;;;;;;21.00;11.15;;;;;;;;;;5015058;28;20056;-71
2022/10/26 06:58:01;;;;;;;17.55;11.68;;;;;;;;;;5011514;28;20036;-71
2022/10/26 07:00:27;;;;;;;17.40;11.20;;;;;;;;;;5036658;28;20102;-71
2022/10/26 07:02:53;;;;;;;18.17;11.55;;;;;;;;;;5006193;28;20343;-76
2022/10/26 07:05:19;;;;;;;21.38;11.63;;;;;;;;;;5026061;28;20021;-70
2022/10/26 07:07:46;;;;;;;21.45;11.02;;;;;;;;;;5023663;28;20311;-72
2022/10/26 07:10:13;;;;;;;19.92;11.98;;;;;;;;;;5031600;28;20035;-76
2022/10/26 07:12:39;;;;;;;21.15;12.20;;;;;;;;;;5032255;28;20029;-71
2022/10/26 07:15:05;;;;;;;26.45;12.05;;;;;;;;;;5014148;28;20419;-71
2022/10/26 07:17:31;;;;;;;17.10;11.07;;;;;;;;;;5023701;28;20022;-71
2022/10/26 07:19:57;;;;;;;21.70;10.60;;;;;;;;;;5031869;28;20481;-71
2022/10/26 07:22:24;;;;;;;18.38;10.35;;;;;;;;;;5027490;28;20033;-72
2022/10/26 07:24:50;;;;;;;21.60;11.07;;;;;;;;;;5031896;28;20555;-73
2022/10/26 07:27:18;;;;;;;15.82;10.13;;;;;;;;;;5025499;28;20450;-74
2022/10/26 07:29:44;;;;;;;15.07;9.60;;;;;;;;;;5032787;28;20037;-72
2022/10/26 07:32:10;;;;;;;16.58;8.95;;;;;;;;;;5026653;28;20029;-71
2022/10/26 07:34:36;;;;;;;13.73;9.10;;;;;;;;;;5037053;28;20106;-70
2022/10/26 07:37:02;;;;;;;13.90;9.40;;;;;;;;;;5035494;28;20084;-70
2022/10/26 07:39:31;;;;;;;14.32;8.65;;;;;;;;;;5027834;28;20029;-72
2022/10/26 07:41:57;;;;;;;14.18;8.93;;;;;;;;;;5030416;28;20026;-70
2022/10/26 07:44:23;;;;;;;14.82;8.65;;;;;;;;;;5033628;28;20017;-72
2022/10/26 07:46:49;;;;;;;15.93;9.65;;;;;;;;;;5031320;28;20051;-73
2022/10/26 07:49:15;;;;;;;20.17;10.80;;;;;;;;;;5022762;28;20034;-71
2022/10/26 07:51:41;;;;;;;12.75;7.88;;;;;;;;;;5033373;28;20030;-71
2022/10/26 07:54:07;;;;;;;15.05;7.65;;;;;;;;;;5033097;28;20029;-71
2022/10/26 07:56:33;;;;;;;15.93;8.25;;;;;;;;;;5008796;28;20124;-71
2022/10/26 07:58:59;;;;;;;15.05;7.97;;;;;;;;;;5030975;28;20033;-71
2022/10/26 08:01:25;;;;;;;17.00;7.43;;;;;;;;;;5040912;28;20365;-71
2022/10/26 08:03:52;;;;;;;14.02;7.85;;;;;;;;;;5046638;28;20456;-71
2022/10/26 08:06:18;;;;;;;10.52;6.60;;;;;;;;;;5032575;28;20037;-71
2022/10/26 08:08:45;;;;;;;14.00;6.63;;;;;;;;;;5036703;28;20045;-73
2022/10/26 08:11:12;;;;;;;12.73;6.78;;;;;;;;;;5010307;28;20021;-74
2022/10/26 08:13:38;;;;;;;10.05;6.47;;;;;;;;;;5030908;28;20033;-72
2022/10/26 08:16:05;;;;;;;11.60;7.00;;;;;;;;;;5026741;28;20053;-75
2022/10/26 08:18:31;;;;;;;10.57;7.05;;;;;;;;;;5032024;28;20025;-74
2022/10/26 08:21:01;;;;;;;16.00;7.13;;;;;;;;;;5027315;28;20045;-71
2022/10/26 08:23:27;;;;;;;12.63;6.10;;;;;;;;;;5031296;28;20079;-69
2022/10/26 08:25:57;;;;;;;9.95;6.50;;;;;;;;;;5039417;28;20033;-71
2022/10/26 08:28:23;;;;;;;11.73;6.10;;;;;;;;;;5026507;28;20029;-69
2022/10/26 08:30:49;;;;;;;9.98;6.07;;;;;;;;;;5026981;28;20026;-70
2022/10/26 08:33:15;;;;;;;20.17;6.30;;;;;;;;;;5027073;28;20420;-70
2022/10/26 08:35:41;;;;;;;19.13;5.85;;;;;;;;;;5029495;28;20434;-70
2022/10/26 08:38:07;;;;;;;10.52;6.13;;;;;;;;;;5031851;28;20276;-72
2022/10/26 08:40:36;;;;;;;16.00;6.38;;;;;;;;;;5032205;28;20034;-69
2022/10/26 08:43:10;;;;;;;7.93;5.75;;;;;;;;;;5037256;28;20032;-72
2022/10/26 08:45:38;;;;;;;10.35;4.82;;;;;;;;;;5030740;28;20087;-72
2022/10/26 08:48:06;;;;;;;11.07;5.72;;;;;;;;;;5024320;28;20432;-70
2022/10/26 08:50:34;;;;;;;11.88;5.55;;;;;;;;;;5032128;28;20026;-72
2022/10/26 08:53:03;;;;;;;9.98;6.15;;;;;;;;;;5030686;28;20028;-74
2022/10/26 08:55:37;;;;;;;8.57;5.30;;;;;;;;;;5033083;28;20565;-70
2022/10/26 08:58:07;;;;;;;11.45;5.10;;;;;;;;;;5031678;28;20107;-73
2022/10/26 09:00:33;;;;;;;12.02;4.78;;;;;;;;;;5027319;28;20043;-74
2022/10/26 09:02:59;;;;;;;11.48;4.60;;;;;;;;;;5028479;28;20412;-70
2022/10/26 09:05:32;;;;;;;16.38;5.78;;;;;;;;;;5029689;28;20029;-70
2022/10/26 09:07:58;;;;;;;10.25;5.60;;;;;;;;;;5030430;28;20059;-70
2022/10/26 09:10:32;;;;;;;10.07;4.53;;;;;;;;;;5011541;28;20407;-70
2022/10/26 09:12:58;;;;;;;12.77;4.68;;;;;;;;;;5004781;28;20029;-70
2022/10/26 09:15:29;;;;;;;12.95;4.70;;;;;;;;;;5028318;28;20053;-70
2022/10/26 09:18:17;;;;;;;9.50;4.75;;;;;;;;;;5029619;28;20040;-71
2022/10/26 09:20:51;;;;;;;10.18;4.38;;;;;;;;;;5036005;28;20419;-75
2022/10/26 09:23:43;;;;;;;7.35;4.22;;;;;;;;;;5008631;28;20034;-76
2022/10/26 09:26:14;;;;;;;7.47;3.80;;;;;;;;;;5022934;28;20069;-69
2022/10/26 09:28:40;;;;;;;7.97;4.25;;;;;;;;;;5035712;28;20461;-72
2022/10/26 09:31:14;;;;;;;10.40;4.18;;;;;;;;;;5025803;28;20045;-72
2022/10/26 09:33:40;;;;;;;12.30;3.78;;;;;;;;;;5031060;28;20034;-72
2022/10/26 09:36:09;;;;;;;8.00;4.03;;;;;;;;;;5025633;28;20069;-70
2022/10/26 09:38:35;;;;;;;8.80;4.05;;;;;;;;;;5029222;28;20355;-70
2022/10/26 09:41:21;;;;;;;9.27;4.03;;;;;;;;;;5042229;28;20025;-75
2022/10/26 09:43:50;;;;;;;10.98;4.13;;;;;;;;;;5027025;28;20037;-69
2022/10/26 09:46:20;;;;;;;11.35;4.20;;;;;;;;;;5026662;28;20358;-71
2022/10/26 09:48:52;;;;;;;10.25;4.25;;;;;;;;;;5029386;28;20026;-68
2022/10/26 09:51:18;;;;;;;11.95;3.42;;;;;;;;;;5044130;28;20059;-70
2022/10/26 09:53:44;;;;;;;9.35;3.60;;;;;;;;;;5045585;28;20141;-71
2022/10/26 09:56:11;;;;;;;8.15;3.55;;;;;;;;;;5024422;28;20128;-74
2022/10/26 09:59:01;;;;;;;9.88;3.40;;;;;;;;;;5029719;28;20025;-70
2022/10/26 10:01:31;;;;;;;8.25;3.17;;;;;;;;;;5000238;28;20053;-75
2022/10/26 10:04:10;;;;;;;7.20;3.20;;;;;;;;;;5017338;28;20072;-71
2022/10/26 10:06:36;;;;;;;8.35;3.25;;;;;;;;;;5031065;28;20079;-71
2022/10/26 10:09:05;;;;;;;3.70;2.50;;;;;;;;;;5050160;28;20472;-72
2022/10/26 10:11:42;;;;;;;13.02;3.13;;;;;;;;;;5027200;28;20024;-70
2022/10/26 10:14:09;;;;;;;10.20;2.65;;;;;;;;;;5026520;28;20022;-71
2022/10/26 10:16:35;;;;;;;10.38;2.58;;;;;;;;;;5024991;28;20053;-70
2022/10/26 10:19:01;;;;;;;7.78;2.35;;;;;;;;;;5030388;28;20127;-70
2022/10/26 10:21:35;;;;;;;5.40;2.72;;;;;;;;;;5022316;28;20018;-70
2022/10/26 10:24:01;;;;;;;6.78;2.88;;;;;;;;;;5034990;28;20025;-70
2022/10/26 10:26:27;;;;;;;8.13;2.75;;;;;;;;;;5030416;28;20033;-70
2022/10/26 10:28:58;;;;;;;9.75;2.35;;;;;;;;;;5022309;28;20442;-71
2022/10/26 10:31:28;;;;;;;4.68;2.67;;;;;;;;;;5032157;28;20480;-70
2022/10/26 10:33:54;;;;;;;6.88;2.53;;;;;;;;;;5020417;28;20166;-70
2022/10/26 10:36:21;;;;;;;5.18;2.38;;;;;;;;;;5028964;28;20472;-75
2022/10/26 10:38:49;;;;;;;8.40;2.65;;;;;;;;;;5024401;28;20370;-74
2022/10/26 10:41:21;;;;;;;6.25;2.78;;;;;;;;;;5031239;28;20410;-72
2022/10/26 10:43:48;;;;;;;8.02;1.92;;;;;;;;;;5034458;28;20032;-70
2022/10/26 10:46:17;;;;;;;5.63;2.63;;;;;;;;;;5032753;28;20396;-71
2022/10/26 10:48:48;;;;;;;4.63;2.00;;;;;;;;;;5027866;28;20029;-70
2022/10/26 10:51:18;;;;;;;4.60;2.10;;;;;;;;;;5044352;28;20029;-69
2022/10/26 10:53:45;;;;;;;4.72;2.00;;;;;;;;;;5036515;28;20052;-74
2022/10/26 10:56:14;;;;;;;7.68;2.35;;;;;;;;;;5041429;28;20070;-71
2022/10/26 10:58:40;;;;;;;6.68;1.90;;;;;;;;;;5028661;28;20098;-70
2022/10/26 11:01:10;;;;;;;4.18;2.03;;;;;;;;;;5021524;28;20465;-70
2022/10/26 11:03:56;;;;;;;5.97;1.95;;;;;;;;;;5032424;28;20347;-71
2022/10/26 11:06:23;;;;;;;7.05;2.40;;;;;;;;;;5033216;28;20454;-75
2022/10/26 11:08:56;;;;;;;6.72;2.33;;;;;;;;;;5028070;28;20036;-70
2022/10/26 11:11:25;;;;;;;6.18;2.17;;;;;;;;;;5029421;28;20385;-71
2022/10/26 11:14:05;;;;;;;9.48;2.63;;;;;;;;;;5031441;28;20060;-73
2022/10/26 11:16:34;;;;;;;8.02;2.10;;;;;;;;;;5030610;28;20046;-71
2022/10/26 11:19:04;;;;;;;7.70;2.20;;;;;;;;;;5021863;28;20029;-70
2022/10/26 11:21:32;;;;;;;5.50;2.15;;;;;;;;;;5033722;28;20037;-70
2022/10/26 11:23:58;;;;;;;5.25;2.20;;;;;;;;;;5033263;28;20026;-73
2022/10/26 11:26:29;;;;;;;8.13;2.65;;;;;;;;;;5033457;28;20045;-70
2022/10/26 11:28:58;;;;;;;5.88;2.22;;;;;;;;;;5027288;28;20096;-70
2022/10/26 11:31:30;;;;;;;7.32;2.72;;;;;;;;;;5035823;28;20041;-71
2022/10/26 11:34:13;;;;;;;6.38;2.08;;;;;;;;;;5010427;28;20060;-70
2022/10/26 11:36:39;;;;;;;;;;;;;;;;;;5026655;28;20040;-73
2022/10/26 11:39:10;;;;;;;7.60;2.88;;;;;;;;;;5026265;28;19920;-70
2022/10/26 11:41:58;;;;;;;5.47;1.85;;;;;;;;;;5028487;28;20030;-72
2022/10/26 11:44:35;;;;;;;8.63;2.03;;;;;;;;;;5033269;28;20029;-74
2022/10/26 11:47:08;;;;;;;4.40;2.28;;;;;;;;;;5033103;28;20092;-71
2022/10/26 11:49:50;;;;;;;5.93;2.53;;;;;;;;;;5045421;28;20182;-71
2022/10/26 11:52:16;;;;;;;11.48;2.03;;;;;;;;;;5036176;28;20029;-72
2022/10/26 11:54:46;;;;;;;8.70;2.55;;;;;;;;;;5011373;28;20377;-71
2022/10/26 11:57:14;;;;;;;7.20;2.45;;;;;;;;;;5027239;28;20434;-71
2022/10/26 11:59:43;;;;;;;10.10;2.72;;;;;;;;;;5031437;28;20030;-71
2022/10/26 12:02:18;;;;;;;10.13;3.60;;;;;;;;;;5031784;28;20026;-75
2022/10/26 12:04:45;;;;;;;8.43;3.05;;;;;;;;;;5028139;28;20022;-71
2022/10/26 12:07:15;;;;;;;15.90;2.83;;;;;;;;;;5029117;28;20028;-71
2022/10/26 12:09:44;;;;;;;8.50;2.92;;;;;;;;;;5026915;28;20095;-71
2022/10/26 12:12:17;;;;;;;9.98;4.28;;;;;;;;;;5022232;28;20028;-71
2022/10/26 12:14:48;;;;;;;9.00;3.03;;;;;;;;;;5038718;28;20045;-70
2022/10/26 12:17:21;;;;;;;9.15;3.33;;;;;;;;;;5028963;28;20100;-71
2022/10/26 12:19:47;;;;;;;7.93;3.38;;;;;;;;;;5013763;28;20103;-72
2022/10/26 12:22:14;;;;;;;13.50;3.58;;;;;;;;;;5026249;28;20381;-71
2022/10/26 12:24:44;;;;;;;10.88;3.05;;;;;;;;;;5031585;28;20410;-72
2022/10/26 12:27:29;;;;;;;14.32;4.32;;;;;;;;;;5033790;28;20033;-70
2022/10/26 12:30:15;;;;;;;7.70;4.57;;;;;;;;;;5036291;28;20122;-71
2022/10/26 12:32:41;;;;;;;10.98;4.72;;;;;;;;;;5004874;28;20041;-70
2022/10/26 12:35:26;;;;;;;11.38;4.82;;;;;;;;;;5021959;28;20492;-70
2022/10/26 12:37:52;;;;;;;13.40;5.18;;;;;;;;;;5029410;28;20037;-72
2022/10/26 12:40:33;;;;;;;8.55;3.80;;;;;;;;;;5029422;28;20021;-70
2022/10/26 12:43:14;;;;;;;9.73;4.40;;;;;;;;;;5019859;28;20084;-71
2022/10/26 12:46:03;;;;;;;13.13;5.13;;;;;;;;;;5031634;28;20454;-73
2022/10/26 12:48:43;;;;;;;9.05;4.07;;;;;;;;;;5024797;28;20124;-72
2022/10/26 12:51:21;;;;;;;8.82;4.28;;;;;;;;;;5029668;28;20032;-72
2022/10/26 12:53:57;;;;;;;11.60;4.75;;;;;;;;;;5023740;28;20056;-75
2022/10/26 12:56:43;;;;;;;7.80;4.15;;;;;;;;;;5032046;28;20021;-71
2022/10/26 12:59:32;;;;;;;8.38;3.60;;;;;;;;;;5013852;28;20423;-71
2022/10/26 13:02:05;;;;;;;12.00;3.60;;;;;;;;;;5000636;28;20071;-71
2022/10/26 13:04:34;;;;;;;10.10;3.72;;;;;;;;;;5006098;28;20049;-71
2022/10/26 13:07:16;;;;;;;9.45;4.40;;;;;;;;;;5029916;28;20029;-71
2022/10/26 13:09:45;;;;;;;10.50;3.85;;;;;;;;;;5029668;28;20057;-74
2022/10/26 13:12:11;;;;;;;9.63;3.78;;;;;;;;;;5031572;28;20032;-71
2022/10/26 13:14:42;;;;;;;9.60;3.53;;;;;;;;;;5028577;28;20072;-71
2022/10/26 13:17:21;;;;;;;16.57;4.37;;;;;;;;;;5030857;28;20028;-69
2022/10/26 13:19:48;;;;;;;10.02;3.70;;;;;;;;;;5015703;28;20299;-70
2022/10/26 13:22:21;;;;;;;12.55;4.25;;;;;;;;;;5039357;28;20095;-70
2022/10/26 13:24:47;;;;;;;;;;;;;;;;;;5009898;28;20033;-69
2022/10/26 13:27:13;;;;;;;11.15;3.47;;;;;;;;;;5035493;28;20369;-71
2022/10/26 13:29:57;;;;;;;11.25;3.40;;;;;;;;;;5024728;28;20342;-70
2022/10/26 13:32:23;;;;;;;10.15;3.30;;;;;;;;;;5025710;28;20025;-70
2022/10/26 13:34:50;;;;;;;7.93;2.72;;;;;;;;;;5025372;28;20047;-71
2022/10/26 13:37:19;;;;;;;8.18;3.50;;;;;;;;;;5031225;28;20029;-70
2022/10/26 13:39:46;;;;;;;10.85;2.60;;;;;;;;;;5026411;28;20104;-72
2022/10/26 13:42:20;;;;;;;13.15;3.40;;;;;;;;;;5029518;28;20121;-71
2022/10/26 13:44:52;;;;;;;9.98;2.70;;;;;;;;;;5031332;28;20096;-70
2022/10/26 13:47:25;;;;;;;13.95;3.83;;;;;;;;;;5026355;28;20446;-70
2022/10/26 13:49:52;;;;;;;9.70;2.65;;;;;;;;;;5030957;28;20025;-76
2022/10/26 13:52:22;;;;;;;11.35;2.70;;;;;;;;;;5024532;28;20025;-70
2022/10/26 13:54:50;;;;;;;7.60;2.03;;;;;;;;;;5031917;28;20025;-70
2022/10/26 13:57:20;;;;;;;6.10;2.47;;;;;;;;;;5025337;28;20017;-70
2022/10/26 13:59:46;;;;;;;8.95;2.63;;;;;;;;;;5030182;28;20033;-75
2022/10/26 14:02:16;;;;;;;8.00;2.20;;;;;;;;;;5021969;28;20036;-70
2022/10/26 14:04:46;;;;;;;11.18;3.13;;;;;;;;;;5040784;28;20449;-70
2022/10/26 14:07:16;;;;;;;9.88;3.47;;;;;;;;;;5041916;28;20013;-71
2022/10/26 14:09:42;;;;;;;7.30;2.63;;;;;;;;;;5022469;28;20033;-72
2022/10/26 14:12:10;;;;;;;12.02;2.40;;;;;;;;;;5029842;28;20036;-74
2022/10/26 14:14:37;;;;;;;8.70;2.08;;;;;;;;;;5005359;28;20159;-69
2022/10/26 14:17:04;;;;;;;7.45;2.55;;;;;;;;;;5028212;28;20038;-69
2022/10/26 14:19:31;;;;;;;9.13;2.60;;;;;;;;;;5027130;28;20025;-69
2022/10/26 14:21:57;;;;;;;9.10;2.35;;;;;;;;;;5024008;28;20428;-69
2022/10/26 14:24:34;;;;;;;7.18;2.60;;;;;;;;;;5029888;28;20037;-73
2022/10/26 14:27:00;;;;;;;9.13;2.38;;;;;;;;;;5028580;28;20079;-69
2022/10/26 14:29:27;;;;;;;6.68;2.45;;;;;;;;;;5030167;28;20342;-70
2022/10/26 14:31:54;;;;;;;9.25;2.40;;;;;;;;;;5033895;28;20021;-70
2022/10/26 14:34:21;;;;;;;6.45;2.53;;;;;;;;;;5028528;28;20025;-70
2022/10/26 14:36:55;;;;;;;9.25;3.10;;;;;;;;;;5007476;28;20462;-71
2022/10/26 14:39:21;;;;;;;14.82;3.17;;;;;;;;;;5038769;28;20465;-70
2022/10/26 14:41:48;;;;;;;8.32;3.47;;;;;;;;;;5030170;28;20025;-71